Time;durP1;ratioP1;P1;durP2;ratioP2;P2;SDS_P1;SDS_P2;PMS_P1;PMS_P2;Temp;Humidity;BMP_temperature;BMP_pressure;BME280_temperature;BME280_humidity;BME280_pressure;Samples;Min_cycle;Max_cycle;Signal;HPM_P1;HPM_P2
2023/01/23 00:01:02;;;;;;;47.47;25.10;;;;;;;6.67;100.00;100825.94;4846346;29;20089;-77
2023/01/23 00:03:28;;;;;;;43.90;24.42;;;;;;;6.66;100.00;100823.47;4846947;29;20063;-77
2023/01/23 00:05:58;;;;;;;44.58;24.27;;;;;;;6.67;100.00;100819.91;4846292;29;20041;-79
2023/01/23 00:08:24;;;;;;;47.05;23.48;;;;;;;6.63;100.00;100823.72;4850918;29;20476;-79
2023/01/23 00:10:49;;;;;;;48.88;25.25;;;;;;;6.55;100.00;100826.94;4845748;29;20038;-78
2023/01/23 00:13:16;;;;;;;51.58;26.90;;;;;;;6.55;100.00;100837.38;4850310;29;20022;-78
2023/01/23 00:15:43;;;;;;;45.35;26.33;;;;;;;6.56;100.00;100828.59;4851042;29;20042;-78
2023/01/23 00:18:08;;;;;;;47.53;26.98;;;;;;;6.54;100.00;100836.53;4851999;29;20105;-78
2023/01/23 00:20:38;;;;;;;51.30;26.50;;;;;;;6.48;100.00;100851.84;4849643;29;20556;-78
2023/01/23 00:23:03;;;;;;;48.83;26.27;;;;;;;6.37;100.00;100847.50;4848595;29;20448;-78
2023/01/23 00:25:29;;;;;;;42.28;23.50;;;;;;;6.46;100.00;100830.28;4848493;29;20065;-78
2023/01/23 00:27:55;;;;;;;42.17;23.38;;;;;;;6.57;100.00;100825.03;4830450;29;20121;-78
2023/01/23 00:30:22;;;;;;;43.63;22.25;;;;;;;6.56;100.00;100824.19;4848104;29;20094;-78
2023/01/23 00:32:48;;;;;;;40.55;22.95;;;;;;;6.56;100.00;100828.59;4850155;29;20493;-79
2023/01/23 00:35:13;;;;;;;39.00;22.02;;;;;;;6.56;100.00;100823.38;4830017;29;20033;-78
2023/01/23 00:37:39;;;;;;;41.50;22.60;;;;;;;6.51;100.00;100815.91;4848664;29;20070;-79
2023/01/23 00:40:05;;;;;;;38.03;21.40;;;;;;;6.56;100.00;100818.16;4850634;29;20030;-79
2023/01/23 00:42:31;;;;;;;31.00;15.68;;;;;;;6.80;100.00;100824.94;4846958;29;20034;-78
2023/01/23 00:44:57;;;;;;;37.17;19.70;;;;;;;6.86;100.00;100824.44;4844868;29;20034;-79
2023/01/23 00:47:23;;;;;;;32.88;18.45;;;;;;;6.90;100.00;100830.25;4852698;29;20085;-78
2023/01/23 00:49:48;;;;;;;30.58;18.10;;;;;;;7.02;100.00;100844.91;4853544;29;20038;-79
2023/01/23 00:52:14;;;;;;;30.58;16.88;;;;;;;6.95;100.00;100836.75;4850995;29;20052;-78
2023/01/23 00:54:39;;;;;;;22.65;13.73;;;;;;;7.14;100.00;100837.84;4850517;29;20050;-78
2023/01/23 00:57:05;;;;;;;25.63;13.43;;;;;;;7.24;100.00;100838.72;4853261;29;20500;-78
2023/01/23 00:59:30;;;;;;;22.83;12.48;;;;;;;7.34;100.00;100835.34;4854246;29;20046;-79
2023/01/23 01:01:56;;;;;;;24.15;13.73;;;;;;;7.40;100.00;100848.72;4849605;29;20068;-79
2023/01/23 01:04:21;;;;;;;40.45;18.98;;;;;;;7.40;100.00;100853.09;4850563;29;20037;-78
2023/01/23 01:06:48;;;;;;;35.60;20.63;;;;;;;7.36;100.00;100851.72;4853768;29;20113;-79
2023/01/23 01:09:13;;;;;;;32.45;19.77;;;;;;;7.42;100.00;100859.88;4853526;29;20034;-79
2023/01/23 01:11:39;;;;;;;39.05;19.52;;;;;;;7.44;100.00;100857.13;4849180;29;20488;-79
2023/01/23 01:14:04;;;;;;;33.47;18.55;;;;;;;7.38;100.00;100852.41;4854444;29;20491;-78
2023/01/23 01:16:30;;;;;;;36.88;20.40;;;;;;;7.29;100.00;100860.06;4851533;29;20044;-79
2023/01/23 01:18:55;;;;;;;38.92;21.63;;;;;;;7.27;100.00;100848.09;4848192;29;20461;-79
2023/01/23 01:21:22;;;;;;;39.60;20.95;;;;;;;7.19;100.00;100840.88;4852648;29;20408;-79
2023/01/23 01:23:47;;;;;;;38.65;22.13;;;;;;;7.18;100.00;100860.13;4853410;29;20464;-79
2023/01/23 01:26:13;;;;;;;41.53;23.05;;;;;;;7.09;100.00;100855.69;4850220;29;20179;-78
2023/01/23 01:28:41;;;;;;;43.80;23.73;;;;;;;7.09;100.00;100859.09;4851729;29;20040;-78
2023/01/23 01:31:13;;;;;;;44.92;24.80;;;;;;;7.05;100.00;100862.09;4856564;29;20388;-78
2023/01/23 01:33:40;;;;;;;39.75;24.73;;;;;;;6.92;100.00;100855.28;4843815;29;20476;-82
2023/01/23 01:36:11;;;;;;;43.63;24.10;;;;;;;6.90;100.00;100841.53;4853207;29;20040;-81
2023/01/23 01:38:39;;;;;;;47.53;27.15;;;;;;;6.78;100.00;100848.56;4850592;29;20416;-81
2023/01/23 01:41:05;;;;;;;40.67;25.58;;;;;;;6.67;100.00;100859.84;4846714;29;20030;-80
2023/01/23 01:43:32;;;;;;;45.83;25.83;;;;;;;6.72;100.00;100852.50;4850767;29;20082;-81
2023/01/23 01:46:06;;;;;;;46.35;25.58;;;;;;;6.74;100.00;100852.38;4849656;29;20038;-80
2023/01/23 01:48:41;;;;;;;47.20;27.33;;;;;;;6.77;100.00;100848.69;4849211;29;20592;-80
2023/01/23 01:51:22;;;;;;;51.67;26.65;;;;;;;6.68;100.00;100852.88;4850602;29;20040;-80
2023/01/23 01:54:05;;;;;;;50.67;25.08;;;;;;;6.69;100.00;100855.38;4854313;29;20389;-81
2023/01/23 01:56:36;;;;;;;47.22;27.13;;;;;;;6.69;100.00;100850.16;4850684;29;20082;-81
2023/01/23 01:59:05;;;;;;;47.42;27.25;;;;;;;6.77;100.00;100856.53;4850932;29;20134;-80
2023/01/23 02:01:44;;;;;;;48.75;25.67;;;;;;;6.79;100.00;100865.06;4850086;29;20034;-81
2023/01/23 02:04:15;;;;;;;44.20;24.55;;;;;;;6.82;100.00;100872.63;4851519;29;20489;-82
2023/01/23 02:06:51;;;;;;;44.42;24.25;;;;;;;6.85;100.00;100869.75;4849848;29;20037;-82
2023/01/23 02:09:25;;;;;;;47.22;24.52;;;;;;;6.97;100.00;100883.59;4851553;29;20052;-83
2023/01/23 02:11:51;;;;;;;41.95;23.75;;;;;;;6.98;100.00;100874.84;4851603;29;20038;-83
2023/01/23 02:14:17;;;;;;;44.83;25.08;;;;;;;7.05;100.00;100881.19;4856744;29;20396;-82
2023/01/23 02:16:49;;;;;;;44.67;25.25;;;;;;;7.12;100.00;100884.16;4854130;29;20041;-82
2023/01/23 02:19:33;;;;;;;45.92;24.35;;;;;;;7.11;100.00;100879.88;4853393;29;20041;-82
2023/01/23 02:22:33;;;;;;;49.20;25.10;;;;;;;7.19;100.00;100890.50;4850421;29;20443;-82
2023/01/23 02:25:12;;;;;;;46.00;24.00;;;;;;;7.26;100.00;100891.66;4819759;29;20061;-82
2023/01/23 02:27:38;;;;;;;39.70;22.65;;;;;;;7.29;100.00;100899.25;4854014;29;20021;-83
2023/01/23 02:30:06;;;;;;;47.63;24.25;;;;;;;7.30;100.00;100894.84;4852232;29;20033;-82
2023/01/23 02:32:32;;;;;;;38.60;23.08;;;;;;;7.33;100.00;100894.59;4835144;29;20129;-84
2023/01/23 02:35:04;;;;;;;38.65;23.52;;;;;;;7.34;100.00;100893.63;4849456;29;20080;-83
2023/01/23 02:37:33;;;;;;;48.28;23.77;;;;;;;7.41;100.00;100896.56;4849672;29;20397;-82
2023/01/23 02:40:01;;;;;;;35.55;20.75;;;;;;;7.42;100.00;100893.00;4850067;29;20078;-82
2023/01/23 02:42:28;;;;;;;37.08;20.02;;;;;;;7.44;100.00;100896.31;4850167;29;20109;-81
2023/01/23 02:44:55;;;;;;;39.83;21.70;;;;;;;7.41;100.00;100896.56;4853099;29;20034;-81
2023/01/23 02:47:21;;;;;;;44.60;23.00;;;;;;;7.40;100.00;100889.69;4850627;29;20033;-81
2023/01/23 02:49:47;;;;;;;37.92;22.50;;;;;;;7.39;100.00;100891.47;4850829;29;20048;-82
2023/01/23 02:52:13;;;;;;;47.40;25.50;;;;;;;7.34;100.00;100879.75;4848165;29;20040;-81
2023/01/23 02:54:39;;;;;;;42.95;24.80;;;;;;;7.23;100.00;100884.06;4837154;29;20033;-81
2023/01/23 02:57:05;;;;;;;46.33;25.33;;;;;;;7.23;100.00;100878.84;4854142;29;20513;-80
2023/01/23 03:02:16;;;;;;;48.42;26.77;;;;;;;7.04;100.00;100865.66;4852136;29;20496;-80
2023/01/23 03:04:41;;;;;;;47.45;26.83;;;;;;;7.10;100.00;100873.81;4850414;29;20049;-81
2023/01/23 03:07:07;;;;;;;49.17;26.95;;;;;;;6.99;100.00;100871.28;4852489;29;20026;-82
2023/01/23 03:09:32;;;;;;;46.25;26.20;;;;;;;7.04;100.00;100870.88;4846442;29;20531;-80
2023/01/23 03:11:59;;;;;;;52.97;26.45;;;;;;;6.95;100.00;100865.47;4856734;29;20040;-81
2023/01/23 03:14:25;;;;;;;48.70;26.13;;;;;;;7.05;100.00;100868.16;4846971;29;20037;-81
2023/01/23 03:16:52;;;;;;;48.88;26.08;;;;;;;7.06;100.00;100871.56;4852656;29;20033;-80
2023/01/23 03:19:22;;;;;;;49.05;26.75;;;;;;;7.04;100.00;100865.66;4835991;29;20527;-82
2023/01/23 03:21:48;;;;;;;45.92;25.38;;;;;;;7.00;100.00;100852.03;4845764;29;20045;-81
2023/01/23 03:24:14;;;;;;;49.08;24.85;;;;;;;7.04;100.00;100857.81;4851777;29;20041;-81
2023/01/23 03:26:45;;;;;;;40.50;22.88;;;;;;;7.00;100.00;100855.47;4852508;29;20052;-81
2023/01/23 03:32:01;;;;;;;44.38;25.92;;;;;;;6.93;100.00;100854.31;4847683;29;20556;-82
2023/01/23 03:34:28;;;;;;;46.65;25.73;;;;;;;6.85;100.00;100844.50;4855057;29;20037;-84
2023/01/23 03:36:54;;;;;;;48.08;26.95;;;;;;;6.93;100.00;100856.09;4852488;29;20044;-84
2023/01/23 03:42:05;;;;;;;39.45;23.98;;;;;;;6.85;100.00;100848.88;4852035;29;20025;-83
2023/01/23 03:44:31;;;;;;;41.05;22.98;;;;;;;6.95;100.00;100851.56;4850810;29;20082;-83
2023/01/23 03:46:56;;;;;;;44.05;23.10;;;;;;;6.88;100.00;100846.03;4834776;29;20040;-83
2023/01/23 03:49:22;;;;;;;43.28;23.23;;;;;;;6.93;100.00;100843.88;4852414;29;20049;-82
2023/01/23 03:51:47;;;;;;;40.85;22.00;;;;;;;6.91;100.00;100840.56;4849493;29;20136;-80
2023/01/23 03:54:18;;;;;;;32.88;19.30;;;;;;;6.91;100.00;100837.13;4854627;29;20041;-81
2023/01/23 03:56:45;;;;;;;36.47;20.02;;;;;;;6.84;100.00;100836.78;4850826;29;20050;-81
2023/01/23 03:59:11;;;;;;;41.83;21.80;;;;;;;6.94;100.00;100837.69;4849903;29;20116;-82
2023/01/23 04:01:42;;;;;;;35.45;19.73;;;;;;;6.89;100.00;100825.97;4852795;29;20045;-82
2023/01/23 04:04:09;;;;;;;38.05;20.52;;;;;;;6.81;100.00;100831.81;4848792;29;20033;-81
2023/01/23 04:06:36;;;;;;;35.03;20.15;;;;;;;6.72;100.00;100826.41;4848193;29;20033;-81
2023/01/23 04:09:03;;;;;;;37.10;20.70;;;;;;;6.67;100.00;100819.91;4849606;29;20270;-82
2023/01/23 04:11:29;;;;;;;36.40;20.88;;;;;;;6.50;100.00;100821.28;4834387;29;20041;-82
2023/01/23 04:13:55;;;;;;;39.40;22.65;;;;;;;6.37;100.00;100826.63;4847855;29;20033;-81
2023/01/23 04:16:21;;;;;;;47.35;24.15;;;;;;;6.27;100.00;100829.13;4835798;29;20037;-82
2023/01/23 04:18:53;;;;;;;48.30;24.90;;;;;;;6.14;100.00;100834.50;4848032;29;20373;-80
2023/01/23 04:21:19;;;;;;;51.20;26.85;;;;;;;6.02;100.00;100838.09;4855437;29;20371;-81
2023/01/23 04:23:45;;;;;;;45.05;24.98;;;;;;;6.05;100.00;100846.47;4856772;29;20043;-80
2023/01/23 04:26:11;;;;;;;42.78;24.27;;;;;;;5.86;100.00;100837.44;4850368;29;20129;-83
2023/01/23 04:28:36;;;;;;;54.15;26.27;;;;;;;5.83;100.00;100853.34;4855885;29;20096;-82
2023/01/23 04:31:04;;;;;;;49.00;27.83;;;;;;;5.76;100.00;100848.72;4855141;29;20378;-82
2023/01/23 04:33:29;;;;;;;46.95;25.20;;;;;;;5.76;100.00;100853.91;4851314;29;20033;-83
2023/01/23 04:36:01;;;;;;;45.60;24.17;;;;;;;5.85;100.00;100850.63;4834158;29;20531;-83
2023/01/23 04:38:28;;;;;;;44.28;23.50;;;;;;;5.83;100.00;100852.53;4854975;29;20036;-82
2023/01/23 04:40:54;;;;;;;42.72;22.08;;;;;;;5.80;100.00;100848.38;4858028;29;20038;-82
2023/01/23 04:43:20;;;;;;;41.45;22.92;;;;;;;5.86;100.00;100853.09;4839258;29;20516;-81
2023/01/23 04:45:52;;;;;;;41.28;22.02;;;;;;;5.85;100.00;100848.81;4855197;29;20059;-82
2023/01/23 04:48:18;;;;;;;41.65;22.80;;;;;;;5.81;100.00;100855.22;4849803;29;20097;-84
2023/01/23 04:50:43;;;;;;;43.88;23.90;;;;;;;5.77;100.00;100855.56;4855345;29;20200;-82
2023/01/23 04:53:10;;;;;;;47.55;25.83;;;;;;;5.82;100.00;100858.69;4852497;29;20026;-82
2023/01/23 04:55:35;;;;;;;52.25;27.33;;;;;;;5.84;100.00;100857.59;4853254;29;20180;-82
2023/01/23 04:58:01;;;;;;;56.00;25.85;;;;;;;5.86;100.00;100858.31;4835671;29;20079;-83
2023/01/23 05:00:28;;;;;;;43.10;24.02;;;;;;;5.94;100.00;100859.50;4852546;29;20029;-83
2023/01/23 05:02:55;;;;;;;46.75;24.95;;;;;;;6.07;100.00;100859.41;4831841;29;20044;-82
2023/01/23 05:05:22;;;;;;;38.58;20.75;;;;;;;6.17;100.00;100869.94;4839300;29;20090;-83
2023/01/23 05:07:48;;;;;;;42.47;21.58;;;;;;;6.27;100.00;100865.66;4854131;29;20468;-83
2023/01/23 05:10:14;;;;;;;40.50;20.88;;;;;;;6.36;100.00;100875.38;4856771;29;20124;-83
2023/01/23 05:12:40;;;;;;;33.72;18.15;;;;;;;6.57;100.00;100878.03;4852839;29;20088;-82
2023/01/23 05:15:07;;;;;;;33.20;18.40;;;;;;;6.43;100.00;100881.75;4830931;29;20049;-83
2023/01/23 05:17:33;;;;;;;32.92;17.92;;;;;;;6.49;100.00;100880.44;4855260;29;20056;-82
2023/01/23 05:19:59;;;;;;;32.00;16.48;;;;;;;6.45;100.00;100883.41;4850587;29;20121;-82
2023/01/23 05:22:25;;;;;;;34.30;19.92;;;;;;;6.43;100.00;100881.75;4839189;29;20098;-83
2023/01/23 05:24:51;;;;;;;37.20;21.10;;;;;;;6.33;100.00;100890.41;4851006;29;20029;-83
2023/01/23 05:27:17;;;;;;;39.72;20.60;;;;;;;6.54;100.00;100882.69;4851675;29;20045;-83
2023/01/23 05:29:42;;;;;;;38.75;20.15;;;;;;;6.84;100.00;100886.38;4850206;29;20033;-82
2023/01/23 05:32:08;;;;;;;36.30;19.08;;;;;;;7.09;100.00;100887.81;4851578;29;20030;-82
2023/01/23 05:34:34;;;;;;;37.28;20.67;;;;;;;7.21;100.00;100887.78;4852858;29;20037;-82
2023/01/23 05:36:59;;;;;;;34.97;19.13;;;;;;;7.31;100.00;100874.78;4852086;29;20480;-83
2023/01/23 05:39:25;;;;;;;37.28;18.40;;;;;;;7.41;100.00;100886.94;4851507;29;20029;-81
2023/01/23 05:41:50;;;;;;;35.50;18.10;;;;;;;7.50;100.00;100884.50;4850978;29;20042;-81
2023/01/23 05:44:16;;;;;;;36.42;20.85;;;;;;;7.51;100.00;100891.41;4851324;29;20030;-80
2023/01/23 05:46:44;;;;;;;39.90;22.88;;;;;;;7.42;100.00;100893.84;4853127;29;20484;-80
2023/01/23 05:49:10;;;;;;;42.38;25.50;;;;;;;7.37;100.00;100895.16;4837805;29;20037;-81
2023/01/23 05:51:35;;;;;;;41.75;26.20;;;;;;;7.29;100.00;100883.59;4853252;29;20477;-81
2023/01/23 05:54:02;;;;;;;48.38;26.45;;;;;;;7.29;100.00;100883.59;4840883;29;20030;-81
2023/01/23 05:56:28;;;;;;;43.50;25.65;;;;;;;7.31;100.00;100893.06;4836678;29;20053;-82
2023/01/23 05:58:54;;;;;;;44.35;25.88;;;;;;;7.26;100.00;100890.84;4854451;29;20041;-82
2023/01/23 06:01:20;;;;;;;42.70;24.80;;;;;;;7.19;100.00;100893.13;4852312;29;20037;-82
2023/01/23 06:03:47;;;;;;;44.30;25.45;;;;;;;7.09;100.00;100898.28;4851709;29;20058;-81
2023/01/23 06:06:12;;;;;;;44.83;25.40;;;;;;;7.03;100.00;100888.34;4833406;29;20496;-82
2023/01/23 06:08:38;;;;;;;41.78;25.55;;;;;;;6.89;100.00;100904.28;4848044;29;20034;-82
2023/01/23 06:11:04;;;;;;;51.92;27.23;;;;;;;6.96;100.00;100897.59;4849768;29;20185;-81
2023/01/23 06:13:30;;;;;;;46.78;27.23;;;;;;;6.86;100.00;100897.53;4849981;29;20037;-81
2023/01/23 06:15:56;;;;;;;48.67;26.65;;;;;;;6.77;100.00;100903.50;4853389;29;20501;-80
2023/01/23 06:18:23;;;;;;;49.25;27.52;;;;;;;6.81;100.00;100912.72;4833180;29;20046;-81
2023/01/23 06:20:49;;;;;;;51.55;27.33;;;;;;;6.86;100.00;100914.03;4841804;29;20044;-81
2023/01/23 06:23:15;;;;;;;50.88;27.88;;;;;;;6.92;100.00;100920.53;4847942;29;20390;-81
2023/01/23 06:25:40;;;;;;;47.63;26.23;;;;;;;6.88;100.00;100906.09;4856459;29;20461;-81
2023/01/23 06:28:07;;;;;;;44.97;24.30;;;;;;;6.97;100.00;100923.59;4855877;29;20185;-82
2023/01/23 06:30:32;;;;;;;45.05;26.60;;;;;;;6.98;100.00;100927.88;4850382;29;20040;-82
2023/01/23 06:32:58;;;;;;;49.75;26.05;;;;;;;7.02;100.00;100928.47;4851198;29;20030;-82
2023/01/23 06:35:23;;;;;;;43.45;24.25;;;;;;;7.00;100.00;100931.19;4851963;29;20399;-81
2023/01/23 06:37:49;;;;;;;45.03;25.35;;;;;;;7.01;100.00;100926.81;4851440;29;20033;-81
2023/01/23 06:40:16;;;;;;;47.15;26.35;;;;;;;7.05;100.00;100924.75;4850116;29;20033;-82
2023/01/23 06:42:42;;;;;;;44.22;24.98;;;;;;;7.10;100.00;100925.22;4850087;29;20086;-79
2023/01/23 06:45:09;;;;;;;43.92;25.80;;;;;;;7.05;100.00;100927.38;4849633;29;20705;-81
2023/01/23 06:47:35;;;;;;;42.50;24.15;;;;;;;6.99;100.00;100920.88;4850853;29;20044;-79
2023/01/23 06:50:01;;;;;;;44.75;23.52;;;;;;;7.06;100.00;100931.63;4851317;29;20496;-81
2023/01/23 06:52:29;;;;;;;54.53;27.90;;;;;;;7.06;100.00;100929.00;4852104;29;20037;-78
2023/01/23 06:54:54;;;;;;;41.88;26.00;;;;;;;7.05;100.00;100937.81;4837682;29;20030;-80
2023/01/23 06:57:20;;;;;;;41.95;24.20;;;;;;;7.09;100.00;100934.81;4852066;29;20062;-80
2023/01/23 06:59:46;;;;;;;44.10;23.77;;;;;;;7.17;100.00;100936.81;4855575;29;20392;-81
2023/01/23 07:02:11;;;;;;;40.95;23.45;;;;;;;7.27;100.00;100940.34;4851116;29;20030;-79
2023/01/23 07:04:37;;;;;;;40.28;22.80;;;;;;;7.23;100.00;100951.97;4849299;29;20029;-80
2023/01/23 07:07:03;;;;;;;44.45;26.65;;;;;;;7.29;100.00;100948.88;4848665;29;20504;-80
2023/01/23 07:09:29;;;;;;;48.28;29.13;;;;;;;7.31;100.00;100956.59;4850889;29;20057;-81
2023/01/23 07:11:55;;;;;;;49.75;28.73;;;;;;;7.25;100.00;100946.66;4848642;29;20512;-79
2023/01/23 07:14:20;;;;;;;48.65;28.70;;;;;;;7.21;100.00;100946.06;4851183;29;20170;-80
2023/01/23 07:16:46;;;;;;;52.25;28.63;;;;;;;7.25;100.00;100957.91;4846952;29;20041;-81
2023/01/23 07:19:12;;;;;;;51.25;30.83;;;;;;;7.27;100.00;100957.78;4849439;29;20041;-81
2023/01/23 07:21:37;;;;;;;48.65;29.23;;;;;;;7.24;100.00;100956.25;4855997;29;20029;-82
2023/01/23 07:24:05;;;;;;;53.08;29.88;;;;;;;7.17;100.00;100952.50;4854960;29;20069;-82
2023/01/23 07:26:31;;;;;;;53.15;29.60;;;;;;;7.17;100.00;100967.31;4849178;29;20029;-83
2023/01/23 07:28:59;;;;;;;51.22;30.27;;;;;;;7.16;100.00;100961.28;4849794;29;20033;-80
2023/01/23 07:31:24;;;;;;;48.65;29.50;;;;;;;7.16;100.00;100961.28;4853904;29;20370;-80
2023/01/23 07:33:50;;;;;;;52.28;30.63;;;;;;;7.18;100.00;100956.75;4848117;29;20033;-79
2023/01/23 07:36:17;;;;;;;56.83;30.98;;;;;;;7.16;100.00;100966.50;4852277;29;20412;-80
2023/01/23 07:38:43;;;;;;;50.10;28.95;;;;;;;7.11;100.00;100968.66;4848367;29;20040;-79
2023/01/23 07:41:08;;;;;;;51.80;27.65;;;;;;;7.06;100.00;100963.81;4846185;29;20033;-79
2023/01/23 07:43:34;;;;;;;51.20;27.98;;;;;;;6.98;100.00;100964.41;4851973;29;20038;-79
2023/01/23 07:46:00;;;;;;;51.13;28.20;;;;;;;6.96;100.00;100968.94;4847408;29;20519;-85
2023/01/23 07:48:27;;;;;;;47.95;27.50;;;;;;;6.86;100.00;100954.94;4851655;29;20147;-82
2023/01/23 07:50:53;;;;;;;59.05;31.50;;;;;;;6.89;100.00;100965.16;4848531;29;20113;-80
2023/01/23 07:53:18;;;;;;;47.78;29.20;;;;;;;6.86;100.00;100962.78;4848176;29;20057;-80
2023/01/23 07:55:44;;;;;;;52.40;30.25;;;;;;;6.86;100.00;100966.22;4846853;29;20050;-80
2023/01/23 07:58:09;;;;;;;56.78;32.30;;;;;;;6.89;100.00;100974.78;4846916;29;20044;-80
2023/01/23 08:00:35;;;;;;;60.40;32.78;;;;;;;6.87;100.00;100972.28;4849581;29;20030;-80
2023/01/23 08:03:01;;;;;;;55.30;32.05;;;;;;;6.99;100.00;100986.97;4836754;29;20112;-80
2023/01/23 08:05:27;;;;;;;53.25;30.50;;;;;;;6.99;100.00;100976.53;4849261;29;20090;-80
2023/01/23 08:07:53;;;;;;;54.53;30.80;;;;;;;7.08;100.00;100979.38;4849377;29;20034;-81
2023/01/23 08:10:18;;;;;;;52.97;29.05;;;;;;;7.19;100.00;100981.91;4848435;29;20042;-79
2023/01/23 08:12:44;;;;;;;56.28;31.08;;;;;;;7.21;100.00;100979.19;4850099;29;20509;-81
2023/01/23 08:15:10;;;;;;;53.97;32.65;;;;;;;7.19;100.00;100976.69;4851307;29;20037;-81
2023/01/23 08:17:36;;;;;;;52.88;30.63;;;;;;;7.20;100.00;100973.13;4841605;29;20034;-79
2023/01/23 08:20:02;;;;;;;58.35;31.73;;;;;;;7.12;100.00;100973.75;4851830;29;20037;-80
2023/01/23 08:22:27;;;;;;;49.50;29.25;;;;;;;7.06;100.00;100970.78;4832074;29;20492;-82
2023/01/23 08:24:53;;;;;;;53.13;30.08;;;;;;;6.89;100.00;100953.88;4850097;29;20044;-82
2023/01/23 08:27:18;;;;;;;57.92;33.75;;;;;;;6.90;100.00;100956.38;4850484;29;20093;-83
2023/01/23 08:29:44;;;;;;;55.10;31.02;;;;;;;6.91;100.00;100962.41;4850575;29;20041;-81
2023/01/23 08:32:09;;;;;;;56.22;32.53;;;;;;;6.84;100.00;100955.09;4849010;29;20033;-85
2023/01/23 08:34:35;;;;;;;57.88;31.75;;;;;;;6.80;100.00;100965.88;4849040;29;20064;-78
2023/01/23 08:37:00;;;;;;;61.25;29.48;;;;;;;6.78;100.00;100957.34;4849976;29;20496;-82
2023/01/23 08:39:26;;;;;;;54.50;30.08;;;;;;;6.70;100.00;100966.63;4850092;29;20034;-82
2023/01/23 08:41:52;;;;;;;52.30;29.95;;;;;;;6.56;100.00;100966.88;4851840;29;20033;-83
2023/01/23 08:44:18;;;;;;;50.05;28.65;;;;;;;6.52;100.00;100973.28;4847958;29;20119;-79
2023/01/23 08:46:45;;;;;;;56.28;31.55;;;;;;;6.47;100.00;100997.13;4846735;29;20034;-85
2023/01/23 08:49:11;;;;;;;52.90;30.67;;;;;;;6.46;100.00;100998.06;4851501;29;20496;-85
2023/01/23 08:51:37;;;;;;;54.50;28.83;;;;;;;6.55;100.00;101005.19;4836582;29;20038;-85
2023/01/23 08:54:03;;;;;;;55.63;28.75;;;;;;;6.49;100.00;101004.84;4858040;29;20040;-84
2023/01/23 08:56:29;;;;;;;51.88;27.10;;;;;;;6.57;100.00;100998.06;4851329;29;20041;-85
2023/01/23 08:58:54;;;;;;;50.92;27.50;;;;;;;6.58;100.00;101001.50;4851560;29;20045;-85
2023/01/23 09:01:23;;;;;;;44.47;25.77;;;;;;;6.60;100.00;101012.66;4844990;29;20112;-82
2023/01/23 09:03:49;;;;;;;47.97;26.05;;;;;;;6.57;100.00;101012.91;4846342;29;20179;-84
2023/01/23 09:06:18;;;;;;;46.92;26.27;;;;;;;6.62;100.00;101026.41;4849614;29;20096;-83
2023/01/23 09:08:44;;;;;;;53.83;29.13;;;;;;;6.57;100.00;101018.13;4832064;29;20041;-83
2023/01/23 09:11:11;;;;;;;54.28;28.77;;;;;;;6.64;100.00;101008.84;4856169;29;20034;-84
2023/01/23 09:13:37;;;;;;;51.17;29.80;;;;;;;6.59;100.00;101011.00;4848595;29;20045;-82
2023/01/23 09:16:04;;;;;;;60.33;30.67;;;;;;;6.63;100.00;101006.38;4854162;29;20034;-84
2023/01/23 09:18:30;;;;;;;54.45;31.80;;;;;;;6.68;100.00;101010.28;4850273;29;20033;-81
2023/01/23 09:20:56;;;;;;;55.00;30.08;;;;;;;6.71;100.00;101002.22;4848357;29;20031;-81
2023/01/23 09:23:23;;;;;;;58.90;32.03;;;;;;;6.74;100.00;101003.75;4856562;29;20048;-81
2023/01/23 09:25:48;;;;;;;57.33;31.50;;;;;;;6.78;100.00;100994.75;4855888;29;20029;-81
2023/01/23 09:28:15;;;;;;;54.63;28.60;;;;;;;6.89;100.00;101006.09;4854336;29;20128;-80
2023/01/23 09:30:41;;;;;;;55.45;29.52;;;;;;;7.05;100.00;101003.94;4854127;29;20030;-82
2023/01/23 09:33:08;;;;;;;50.95;29.08;;;;;;;7.19;100.00;101005.44;4852685;29;20036;-80
2023/01/23 09:35:34;;;;;;;54.42;29.80;;;;;;;7.35;100.00;101006.81;4850463;29;20396;-79
2023/01/23 09:38:00;;;;;;;57.83;31.17;;;;;;;7.48;100.00;101006.63;4851425;29;20037;-82
2023/01/23 09:40:44;;;;;;;52.17;29.90;;;;;;;7.56;100.00;101015.50;4850594;29;20516;-83
2023/01/23 09:43:19;;;;;;;50.92;29.88;;;;;;;7.72;100.00;101030.75;4856598;29;20033;-81
2023/01/23 09:45:56;;;;;;;52.90;31.30;;;;;;;7.83;100.00;101026.44;4849390;29;20037;-84
2023/01/23 09:48:58;;;;;;;50.33;29.63;;;;;;;7.89;100.00;101032.94;4853959;29;20393;-83
2023/01/23 09:51:23;;;;;;;53.90;30.23;;;;;;;7.79;100.00;101031.06;4833943;29;20420;-82
2023/01/23 09:53:49;;;;;;;52.45;29.73;;;;;;;7.73;100.00;101018.53;4851725;29;20030;-84
2023/01/23 09:56:20;;;;;;;51.50;31.02;;;;;;;7.68;100.00;101031.16;4847019;29;20107;-81
2023/01/23 09:59:11;;;;;;;53.58;31.00;;;;;;;7.58;100.00;101033.69;4832969;29;20116;-82
2023/01/23 10:01:37;;;;;;;51.83;30.23;;;;;;;7.32;100.00;101027.97;4831591;29;20034;-83
2023/01/23 10:04:04;;;;;;;54.80;30.20;;;;;;;7.33;100.00;101040.88;4831896;29;20042;-83
2023/01/23 10:06:45;;;;;;;60.88;31.90;;;;;;;7.32;100.00;101038.41;4834424;29;20037;-83
2023/01/23 10:09:27;;;;;;;53.72;29.55;;;;;;;7.17;100.00;101025.63;4829571;29;20550;-81
2023/01/23 10:11:58;;;;;;;54.00;29.98;;;;;;;7.11;100.00;101031.34;4846724;29;20042;-81
2023/01/23 10:14:47;;;;;;;61.08;31.33;;;;;;;7.02;100.00;101026.84;4831165;29;20099;-82
2023/01/23 10:17:25;;;;;;;60.60;32.58;;;;;;;7.08;100.00;101040.25;4828557;29;20683;-81
2023/01/23 10:20:09;;;;;;;60.15;33.20;;;;;;;7.11;100.00;101045.22;4831281;29;20514;-82
2023/01/23 10:22:40;;;;;;;58.38;31.50;;;;;;;7.11;100.00;101049.63;4831300;29;20527;-83
2023/01/23 10:25:19;;;;;;;52.92;29.73;;;;;;;7.10;100.00;101040.13;4832080;29;20057;-82
2023/01/23 10:27:47;;;;;;;49.65;28.13;;;;;;;7.22;100.00;101049.56;4827237;29;20405;-81
2023/01/23 10:30:33;;;;;;;55.38;28.20;;;;;;;7.20;100.00;101050.69;4829186;29;20034;-81
2023/01/23 10:33:16;;;;;;;48.22;27.60;;;;;;;7.29;100.00;101050.75;4827080;29;20029;-81
2023/01/23 10:35:57;;;;;;;50.15;27.13;;;;;;;7.31;100.00;101047.19;4824365;29;20035;-80
2023/01/23 10:38:34;;;;;;;51.63;28.45;;;;;;;7.33;100.00;101034.84;4829839;29;20042;-81
2023/01/23 10:41:16;;;;;;;56.72;32.40;;;;;;;7.32;100.00;101033.19;4830367;29;20061;-81
2023/01/23 10:43:44;;;;;;;58.85;31.83;;;;;;;7.45;100.00;101039.06;4832028;29;20117;-81
2023/01/23 10:46:15;;;;;;;54.65;31.10;;;;;;;7.55;100.00;101044.34;4833008;29;20046;-80
2023/01/23 10:48:50;;;;;;;57.63;31.98;;;;;;;7.56;100.00;101046.88;4829737;29;20545;-82
2023/01/23 10:51:45;;;;;;;55.13;30.30;;;;;;;7.63;100.00;101036.75;4824657;29;20446;-81
2023/01/23 10:54:23;;;;;;;55.50;30.90;;;;;;;7.69;100.00;101038.03;4828589;29;20037;-81
2023/01/23 10:57:22;;;;;;;58.40;30.85;;;;;;;7.72;100.00;101046.44;4842589;29;20052;-80
2023/01/23 11:00:05;;;;;;;55.10;29.95;;;;;;;7.81;100.00;101047.47;4847838;29;20041;-80
2023/01/23 11:02:33;;;;;;;51.78;28.98;;;;;;;7.84;100.00;101039.34;4847309;29;20034;-81
2023/01/23 11:05:00;;;;;;;55.30;30.25;;;;;;;7.87;100.00;101030.44;4851259;29;20088;-80
2023/01/23 11:07:37;;;;;;;50.78;29.20;;;;;;;7.99;100.00;101028.59;4851331;29;20033;-81
2023/01/23 11:10:08;;;;;;;54.63;29.30;;;;;;;8.11;100.00;101040.66;4849272;29;20041;-79
2023/01/23 11:12:45;;;;;;;53.58;31.77;;;;;;;8.11;100.00;101040.66;4852443;29;20049;-80
2023/01/23 11:15:11;;;;;;;48.63;28.25;;;;;;;8.15;100.00;101031.56;4847709;29;20373;-80
2023/01/23 11:17:37;;;;;;;54.22;29.98;;;;;;;8.19;100.00;101031.31;4847088;29;20041;-78
2023/01/23 11:20:28;;;;;;;52.50;31.08;;;;;;;8.09;100.00;101029.50;4851695;29;20040;-80
2023/01/23 11:23:01;;;;;;;56.20;31.73;;;;;;;8.18;100.00;101024.44;4845738;29;20037;-81